sensor_id;sensor_type;location;lat;lon;timestamp;P1;durP1;ratioP1;P2;durP2;ratioP2
37445;SDS011;23307;51.136;14.942;2023-05-07T00:00:22;17.25;;;12.43;;
37445;SDS011;23307;51.136;14.942;2023-05-07T00:02:48;23.73;;;12.05;;
37445;SDS011;23307;51.136;14.942;2023-05-07T00:05:13;15.85;;;12.10;;
37445;SDS011;23307;51.136;14.942;2023-05-07T00:07:39;19.38;;;12.40;;
37445;SDS011;23307;51.136;14.942;2023-05-07T00:10:05;40.10;;;11.57;;
37445;SDS011;23307;51.136;14.942;2023-05-07T00:12:32;15.75;;;12.18;;
37445;SDS011;23307;51.136;14.942;2023-05-07T00:15:01;18.13;;;12.15;;
37445;SDS011;23307;51.136;14.942;2023-05-07T00:17:28;17.25;;;11.88;;
37445;SDS011;23307;51.136;14.942;2023-05-07T00:19:54;18.88;;;13.27;;
37445;SDS011;23307;51.136;14.942;2023-05-07T00:22:19;20.95;;;13.07;;
37445;SDS011;23307;51.136;14.942;2023-05-07T00:24:46;17.35;;;12.45;;
37445;SDS011;23307;51.136;14.942;2023-05-07T00:27:11;19.60;;;12.73;;
37445;SDS011;23307;51.136;14.942;2023-05-07T00:29:37;15.30;;;11.60;;
37445;SDS011;23307;51.136;14.942;2023-05-07T00:32:02;22.55;;;12.25;;
37445;SDS011;23307;51.136;14.942;2023-05-07T00:34:28;16.77;;;11.93;;
37445;SDS011;23307;51.136;14.942;2023-05-07T00:36:53;35.45;;;12.80;;
37445;SDS011;23307;51.136;14.942;2023-05-07T00:39:19;21.58;;;12.98;;
37445;SDS011;23307;51.136;14.942;2023-05-07T00:41:44;23.88;;;13.18;;
37445;SDS011;23307;51.136;14.942;2023-05-07T00:44:10;19.17;;;12.88;;
37445;SDS011;23307;51.136;14.942;2023-05-07T00:46:36;15.60;;;12.98;;
37445;SDS011;23307;51.136;14.942;2023-05-07T00:49:02;17.88;;;13.25;;
37445;SDS011;23307;51.136;14.942;2023-05-07T00:51:28;17.20;;;13.27;;
37445;SDS011;23307;51.136;14.942;2023-05-07T00:53:54;17.77;;;13.57;;
37445;SDS011;23307;51.136;14.942;2023-05-07T00:56:21;19.67;;;14.55;;
37445;SDS011;23307;51.136;14.942;2023-05-07T00:58:47;19.30;;;14.43;;
37445;SDS011;23307;51.136;14.942;2023-05-07T01:01:13;19.10;;;14.07;;
37445;SDS011;23307;51.136;14.942;2023-05-07T01:03:40;18.00;;;13.80;;
37445;SDS011;23307;51.136;14.942;2023-05-07T01:06:06;18.83;;;14.48;;
37445;SDS011;23307;51.136;14.942;2023-05-07T01:08:32;22.20;;;15.00;;
37445;SDS011;23307;51.136;14.942;2023-05-07T01:10:59;27.10;;;14.88;;
37445;SDS011;23307;51.136;14.942;2023-05-07T01:13:25;25.42;;;14.90;;
37445;SDS011;23307;51.136;14.942;2023-05-07T01:15:52;23.30;;;14.95;;
37445;SDS011;23307;51.136;14.942;2023-05-07T01:18:17;25.27;;;14.43;;
37445;SDS011;23307;51.136;14.942;2023-05-07T01:20:43;28.50;;;15.15;;
37445;SDS011;23307;51.136;14.942;2023-05-07T01:23:08;34.13;;;15.15;;
37445;SDS011;23307;51.136;14.942;2023-05-07T01:25:35;31.95;;;14.45;;
37445;SDS011;23307;51.136;14.942;2023-05-07T01:28:01;24.08;;;14.20;;
37445;SDS011;23307;51.136;14.942;2023-05-07T01:30:27;27.75;;;14.60;;
37445;SDS011;23307;51.136;14.942;2023-05-07T01:33:09;24.40;;;14.27;;
37445;SDS011;23307;51.136;14.942;2023-05-07T01:35:40;17.80;;;14.43;;
37445;SDS011;23307;51.136;14.942;2023-05-07T01:38:08;16.83;;;13.77;;
37445;SDS011;23307;51.136;14.942;2023-05-07T01:40:34;20.17;;;14.27;;
37445;SDS011;23307;51.136;14.942;2023-05-07T01:43:00;24.27;;;14.35;;
37445;SDS011;23307;51.136;14.942;2023-05-07T01:45:27;19.42;;;14.20;;
37445;SDS011;23307;51.136;14.942;2023-05-07T01:47:53;16.98;;;13.85;;
37445;SDS011;23307;51.136;14.942;2023-05-07T01:50:20;19.77;;;13.30;;
37445;SDS011;23307;51.136;14.942;2023-05-07T01:52:46;21.85;;;13.68;;
37445;SDS011;23307;51.136;14.942;2023-05-07T01:55:14;17.75;;;13.32;;
37445;SDS011;23307;51.136;14.942;2023-05-07T01:57:39;17.35;;;13.55;;
37445;SDS011;23307;51.136;14.942;2023-05-07T02:00:05;17.40;;;12.77;;
37445;SDS011;23307;51.136;14.942;2023-05-07T02:02:31;17.67;;;13.45;;
37445;SDS011;23307;51.136;14.942;2023-05-07T02:04:57;17.73;;;12.77;;
37445;SDS011;23307;51.136;14.942;2023-05-07T02:07:22;19.55;;;12.70;;
37445;SDS011;23307;51.136;14.942;2023-05-07T02:09:47;20.42;;;12.73;;
37445;SDS011;23307;51.136;14.942;2023-05-07T02:12:13;16.48;;;12.63;;
37445;SDS011;23307;51.136;14.942;2023-05-07T02:14:38;17.80;;;12.38;;
37445;SDS011;23307;51.136;14.942;2023-05-07T02:17:04;21.95;;;12.68;;
37445;SDS011;23307;51.136;14.942;2023-05-07T02:19:29;15.52;;;12.50;;
37445;SDS011;23307;51.136;14.942;2023-05-07T02:21:55;21.58;;;12.07;;
37445;SDS011;23307;51.136;14.942;2023-05-07T02:24:20;17.85;;;12.05;;
37445;SDS011;23307;51.136;14.942;2023-05-07T02:26:46;15.63;;;12.30;;
37445;SDS011;23307;51.136;14.942;2023-05-07T02:29:11;22.77;;;12.50;;
37445;SDS011;23307;51.136;14.942;2023-05-07T02:31:37;20.83;;;13.45;;
37445;SDS011;23307;51.136;14.942;2023-05-07T02:34:02;15.60;;;12.75;;
37445;SDS011;23307;51.136;14.942;2023-05-07T02:36:28;19.50;;;12.95;;
37445;SDS011;23307;51.136;14.942;2023-05-07T02:38:54;16.65;;;12.95;;
37445;SDS011;23307;51.136;14.942;2023-05-07T02:41:19;16.33;;;12.40;;
37445;SDS011;23307;51.136;14.942;2023-05-07T02:43:45;23.60;;;13.43;;
37445;SDS011;23307;51.136;14.942;2023-05-07T02:46:11;20.35;;;12.77;;
37445;SDS011;23307;51.136;14.942;2023-05-07T02:48:36;17.95;;;12.30;;
37445;SDS011;23307;51.136;14.942;2023-05-07T02:51:02;16.00;;;11.80;;
37445;SDS011;23307;51.136;14.942;2023-05-07T02:53:28;16.45;;;11.85;;
37445;SDS011;23307;51.136;14.942;2023-05-07T02:55:55;14.63;;;11.20;;
37445;SDS011;23307;51.136;14.942;2023-05-07T02:58:24;19.08;;;12.25;;
37445;SDS011;23307;51.136;14.942;2023-05-07T03:00:50;16.55;;;12.02;;
37445;SDS011;23307;51.136;14.942;2023-05-07T03:03:16;16.20;;;11.82;;
37445;SDS011;23307;51.136;14.942;2023-05-07T03:05:42;16.95;;;12.73;;
37445;SDS011;23307;51.136;14.942;2023-05-07T03:08:08;16.92;;;12.27;;
37445;SDS011;23307;51.136;14.942;2023-05-07T03:10:34;17.52;;;11.65;;
37445;SDS011;23307;51.136;14.942;2023-05-07T03:13:00;15.05;;;11.57;;
37445;SDS011;23307;51.136;14.942;2023-05-07T03:15:26;16.25;;;12.43;;
37445;SDS011;23307;51.136;14.942;2023-05-07T03:17:52;16.25;;;11.50;;
37445;SDS011;23307;51.136;14.942;2023-05-07T03:20:17;15.50;;;12.10;;
37445;SDS011;23307;51.136;14.942;2023-05-07T03:22:43;15.48;;;11.25;;
37445;SDS011;23307;51.136;14.942;2023-05-07T03:25:08;15.50;;;12.15;;
37445;SDS011;23307;51.136;14.942;2023-05-07T03:27:34;16.38;;;11.85;;
37445;SDS011;23307;51.136;14.942;2023-05-07T03:30:00;14.20;;;11.57;;
37445;SDS011;23307;51.136;14.942;2023-05-07T03:32:25;15.90;;;11.82;;
37445;SDS011;23307;51.136;14.942;2023-05-07T03:34:51;15.48;;;11.02;;
37445;SDS011;23307;51.136;14.942;2023-05-07T03:37:16;16.85;;;11.77;;
37445;SDS011;23307;51.136;14.942;2023-05-07T03:39:43;12.85;;;11.15;;
37445;SDS011;23307;51.136;14.942;2023-05-07T03:42:08;13.55;;;11.05;;
37445;SDS011;23307;51.136;14.942;2023-05-07T03:44:34;14.52;;;10.77;;
37445;SDS011;23307;51.136;14.942;2023-05-07T03:47:01;15.70;;;11.90;;
37445;SDS011;23307;51.136;14.942;2023-05-07T03:49:28;15.30;;;11.35;;
37445;SDS011;23307;51.136;14.942;2023-05-07T03:51:53;13.85;;;10.95;;
37445;SDS011;23307;51.136;14.942;2023-05-07T03:54:19;13.82;;;10.50;;
37445;SDS011;23307;51.136;14.942;2023-05-07T03:56:44;13.18;;;10.85;;
37445;SDS011;23307;51.136;14.942;2023-05-07T03:59:10;13.85;;;10.98;;
37445;SDS011;23307;51.136;14.942;2023-05-07T04:01:38;15.73;;;11.18;;
37445;SDS011;23307;51.136;14.942;2023-05-07T04:04:11;12.73;;;10.50;;
37445;SDS011;23307;51.136;14.942;2023-05-07T04:06:36;13.80;;;10.25;;
37445;SDS011;23307;51.136;14.942;2023-05-07T04:09:02;13.43;;;10.35;;
37445;SDS011;23307;51.136;14.942;2023-05-07T04:11:27;14.82;;;10.48;;
37445;SDS011;23307;51.136;14.942;2023-05-07T04:13:53;12.25;;;9.98;;
37445;SDS011;23307;51.136;14.942;2023-05-07T04:16:18;12.48;;;9.60;;
37445;SDS011;23307;51.136;14.942;2023-05-07T04:18:44;11.65;;;9.43;;
37445;SDS011;23307;51.136;14.942;2023-05-07T04:21:19;11.48;;;8.63;;
37445;SDS011;23307;51.136;14.942;2023-05-07T04:23:49;12.77;;;9.52;;
37445;SDS011;23307;51.136;14.942;2023-05-07T04:26:14;12.52;;;9.30;;
37445;SDS011;23307;51.136;14.942;2023-05-07T04:28:41;12.52;;;8.35;;
37445;SDS011;23307;51.136;14.942;2023-05-07T04:31:06;9.90;;;7.82;;
37445;SDS011;23307;51.136;14.942;2023-05-07T04:33:33;8.57;;;7.40;;
37445;SDS011;23307;51.136;14.942;2023-05-07T04:36:01;9.57;;;7.65;;
37445;SDS011;23307;51.136;14.942;2023-05-07T04:38:28;10.90;;;7.80;;
37445;SDS011;23307;51.136;14.942;2023-05-07T04:40:58;10.35;;;8.00;;
37445;SDS011;23307;51.136;14.942;2023-05-07T04:43:28;9.07;;;7.35;;
37445;SDS011;23307;51.136;14.942;2023-05-07T04:45:53;8.00;;;6.93;;
37445;SDS011;23307;51.136;14.942;2023-05-07T04:48:18;9.90;;;6.65;;
37445;SDS011;23307;51.136;14.942;2023-05-07T04:50:48;7.88;;;6.72;;
37445;SDS011;23307;51.136;14.942;2023-05-07T04:53:14;6.75;;;6.03;;
37445;SDS011;23307;51.136;14.942;2023-05-07T04:55:40;7.00;;;5.88;;
37445;SDS011;23307;51.136;14.942;2023-05-07T04:58:05;6.72;;;6.05;;
37445;SDS011;23307;51.136;14.942;2023-05-07T05:00:32;6.70;;;5.47;;
37445;SDS011;23307;51.136;14.942;2023-05-07T05:02:58;6.78;;;5.53;;
37445;SDS011;23307;51.136;14.942;2023-05-07T05:05:23;8.43;;;5.75;;
37445;SDS011;23307;51.136;14.942;2023-05-07T05:07:49;7.90;;;6.05;;
37445;SDS011;23307;51.136;14.942;2023-05-07T05:10:16;7.70;;;6.38;;
37445;SDS011;23307;51.136;14.942;2023-05-07T05:12:42;7.30;;;6.38;;
37445;SDS011;23307;51.136;14.942;2023-05-07T05:15:07;8.82;;;6.38;;
37445;SDS011;23307;51.136;14.942;2023-05-07T05:17:33;6.95;;;6.25;;
37445;SDS011;23307;51.136;14.942;2023-05-07T05:20:00;6.63;;;6.03;;
37445;SDS011;23307;51.136;14.942;2023-05-07T05:22:26;6.70;;;6.05;;
37445;SDS011;23307;51.136;14.942;2023-05-07T05:24:54;7.25;;;6.55;;
37445;SDS011;23307;51.136;14.942;2023-05-07T05:27:20;7.13;;;6.43;;
37445;SDS011;23307;51.136;14.942;2023-05-07T05:29:45;7.00;;;6.30;;
37445;SDS011;23307;51.136;14.942;2023-05-07T05:32:11;7.13;;;6.43;;
37445;SDS011;23307;51.136;14.942;2023-05-07T05:34:36;6.85;;;6.15;;
37445;SDS011;23307;51.136;14.942;2023-05-07T05:37:01;6.63;;;6.03;;
37445;SDS011;23307;51.136;14.942;2023-05-07T05:39:27;7.10;;;6.40;;
37445;SDS011;23307;51.136;14.942;2023-05-07T05:41:52;7.95;;;7.15;;
37445;SDS011;23307;51.136;14.942;2023-05-07T05:44:18;9.20;;;8.18;;
37445;SDS011;23307;51.136;14.942;2023-05-07T05:46:43;10.05;;;8.95;;
37445;SDS011;23307;51.136;14.942;2023-05-07T05:49:09;10.48;;;9.35;;
37445;SDS011;23307;51.136;14.942;2023-05-07T05:51:34;13.55;;;10.90;;
37445;SDS011;23307;51.136;14.942;2023-05-07T05:54:00;12.95;;;11.15;;
37445;SDS011;23307;51.136;14.942;2023-05-07T05:56:25;12.55;;;10.65;;
37445;SDS011;23307;51.136;14.942;2023-05-07T05:58:51;14.55;;;11.90;;
37445;SDS011;23307;51.136;14.942;2023-05-07T06:01:17;13.52;;;11.38;;
37445;SDS011;23307;51.136;14.942;2023-05-07T06:03:43;15.57;;;12.35;;
37445;SDS011;23307;51.136;14.942;2023-05-07T06:06:09;17.70;;;11.60;;
37445;SDS011;23307;51.136;14.942;2023-05-07T06:08:35;15.07;;;12.00;;
37445;SDS011;23307;51.136;14.942;2023-05-07T06:11:01;14.27;;;11.57;;
37445;SDS011;23307;51.136;14.942;2023-05-07T06:13:27;14.05;;;11.05;;
37445;SDS011;23307;51.136;14.942;2023-05-07T06:15:52;13.25;;;10.80;;
37445;SDS011;23307;51.136;14.942;2023-05-07T06:18:18;13.63;;;10.30;;
37445;SDS011;23307;51.136;14.942;2023-05-07T06:20:43;15.73;;;11.07;;
37445;SDS011;23307;51.136;14.942;2023-05-07T06:23:09;13.23;;;10.68;;
37445;SDS011;23307;51.136;14.942;2023-05-07T06:25:34;13.52;;;10.38;;
37445;SDS011;23307;51.136;14.942;2023-05-07T06:28:00;13.20;;;9.45;;
37445;SDS011;23307;51.136;14.942;2023-05-07T06:30:25;11.98;;;10.35;;
37445;SDS011;23307;51.136;14.942;2023-05-07T06:32:51;14.05;;;9.93;;
37445;SDS011;23307;51.136;14.942;2023-05-07T06:35:17;11.10;;;9.90;;
37445;SDS011;23307;51.136;14.942;2023-05-07T06:37:42;11.20;;;9.45;;
37445;SDS011;23307;51.136;14.942;2023-05-07T06:40:08;11.85;;;9.88;;
37445;SDS011;23307;51.136;14.942;2023-05-07T06:42:35;10.57;;;9.07;;
37445;SDS011;23307;51.136;14.942;2023-05-07T06:45:01;9.70;;;8.32;;
37445;SDS011;23307;51.136;14.942;2023-05-07T06:47:27;9.93;;;8.93;;
37445;SDS011;23307;51.136;14.942;2023-05-07T06:49:53;10.75;;;9.45;;
37445;SDS011;23307;51.136;14.942;2023-05-07T06:52:18;10.13;;;8.93;;
37445;SDS011;23307;51.136;14.942;2023-05-07T06:54:44;9.30;;;8.38;;
37445;SDS011;23307;51.136;14.942;2023-05-07T06:57:09;10.70;;;9.60;;
37445;SDS011;23307;51.136;14.942;2023-05-07T06:59:35;15.10;;;10.10;;
37445;SDS011;23307;51.136;14.942;2023-05-07T07:02:00;10.20;;;9.00;;
37445;SDS011;23307;51.136;14.942;2023-05-07T07:04:26;9.82;;;8.63;;
37445;SDS011;23307;51.136;14.942;2023-05-07T07:06:51;10.35;;;9.25;;
37445;SDS011;23307;51.136;14.942;2023-05-07T07:09:18;9.00;;;8.07;;
37445;SDS011;23307;51.136;14.942;2023-05-07T07:11:44;10.50;;;8.75;;
37445;SDS011;23307;51.136;14.942;2023-05-07T07:14:09;9.45;;;8.55;;
37445;SDS011;23307;51.136;14.942;2023-05-07T07:16:35;9.82;;;8.82;;
37445;SDS011;23307;51.136;14.942;2023-05-07T07:19:00;10.18;;;9.07;;
37445;SDS011;23307;51.136;14.942;2023-05-07T07:21:25;10.80;;;8.77;;
37445;SDS011;23307;51.136;14.942;2023-05-07T07:23:51;10.10;;;8.15;;
37445;SDS011;23307;51.136;14.942;2023-05-07T07:26:17;10.13;;;9.13;;
37445;SDS011;23307;51.136;14.942;2023-05-07T07:28:43;9.20;;;8.10;;
37445;SDS011;23307;51.136;14.942;2023-05-07T07:31:09;9.80;;;8.80;;
37445;SDS011;23307;51.136;14.942;2023-05-07T07:33:35;9.82;;;8.52;;
37445;SDS011;23307;51.136;14.942;2023-05-07T07:36:01;9.68;;;8.55;;
37445;SDS011;23307;51.136;14.942;2023-05-07T07:38:27;9.20;;;8.35;;
37445;SDS011;23307;51.136;14.942;2023-05-07T07:40:53;9.20;;;7.53;;
37445;SDS011;23307;51.136;14.942;2023-05-07T07:43:18;8.60;;;7.80;;
37445;SDS011;23307;51.136;14.942;2023-05-07T07:45:44;9.68;;;8.40;;
37445;SDS011;23307;51.136;14.942;2023-05-07T07:48:10;10.02;;;8.38;;
37445;SDS011;23307;51.136;14.942;2023-05-07T07:50:48;8.90;;;8.00;;
37445;SDS011;23307;51.136;14.942;2023-05-07T07:53:15;8.73;;;7.85;;
37445;SDS011;23307;51.136;14.942;2023-05-07T07:55:40;8.88;;;7.90;;
37445;SDS011;23307;51.136;14.942;2023-05-07T07:58:05;7.70;;;6.90;;
37445;SDS011;23307;51.136;14.942;2023-05-07T08:00:31;7.13;;;6.43;;
37445;SDS011;23307;51.136;14.942;2023-05-07T08:02:56;7.57;;;6.78;;
37445;SDS011;23307;51.136;14.942;2023-05-07T08:05:22;6.63;;;6.03;;
37445;SDS011;23307;51.136;14.942;2023-05-07T08:07:48;6.70;;;6.10;;
37445;SDS011;23307;51.136;14.942;2023-05-07T08:10:18;6.88;;;6.15;;
37445;SDS011;23307;51.136;14.942;2023-05-07T08:12:49;6.88;;;6.28;;
37445;SDS011;23307;51.136;14.942;2023-05-07T08:15:15;8.05;;;7.25;;
37445;SDS011;23307;51.136;14.942;2023-05-07T08:17:41;7.95;;;7.15;;
37445;SDS011;23307;51.136;14.942;2023-05-07T08:20:07;8.73;;;7.72;;
37445;SDS011;23307;51.136;14.942;2023-05-07T08:22:34;7.93;;;7.13;;
37445;SDS011;23307;51.136;14.942;2023-05-07T08:25:00;8.07;;;7.15;;
37445;SDS011;23307;51.136;14.942;2023-05-07T08:27:26;8.80;;;7.90;;
37445;SDS011;23307;51.136;14.942;2023-05-07T08:29:51;8.02;;;7.22;;
37445;SDS011;23307;51.136;14.942;2023-05-07T08:32:17;9.52;;;8.05;;
37445;SDS011;23307;51.136;14.942;2023-05-07T08:34:42;8.57;;;7.55;;
37445;SDS011;23307;51.136;14.942;2023-05-07T08:37:08;8.70;;;7.80;;
37445;SDS011;23307;51.136;14.942;2023-05-07T08:39:33;9.63;;;7.97;;
37445;SDS011;23307;51.136;14.942;2023-05-07T08:42:00;9.07;;;8.10;;
37445;SDS011;23307;51.136;14.942;2023-05-07T08:44:27;8.02;;;7.20;;
37445;SDS011;23307;51.136;14.942;2023-05-07T08:46:57;9.10;;;7.32;;
37445;SDS011;23307;51.136;14.942;2023-05-07T08:49:27;8.88;;;7.43;;
37445;SDS011;23307;51.136;14.942;2023-05-07T08:51:53;7.30;;;6.60;;
37445;SDS011;23307;51.136;14.942;2023-05-07T08:54:18;8.95;;;7.28;;
37445;SDS011;23307;51.136;14.942;2023-05-07T08:56:45;8.35;;;7.50;;
37445;SDS011;23307;51.136;14.942;2023-05-07T08:59:11;9.30;;;8.10;;
37445;SDS011;23307;51.136;14.942;2023-05-07T09:01:36;9.48;;;8.50;;
37445;SDS011;23307;51.136;14.942;2023-05-07T09:04:03;8.52;;;7.63;;
37445;SDS011;23307;51.136;14.942;2023-05-07T09:06:29;8.43;;;7.63;;
37445;SDS011;23307;51.136;14.942;2023-05-07T09:08:55;7.72;;;6.90;;
37445;SDS011;23307;51.136;14.942;2023-05-07T09:11:23;7.80;;;7.10;;
37445;SDS011;23307;51.136;14.942;2023-05-07T09:13:53;8.93;;;8.05;;
37445;SDS011;23307;51.136;14.942;2023-05-07T09:16:20;8.00;;;7.20;;
37445;SDS011;23307;51.136;14.942;2023-05-07T09:18:46;8.10;;;7.30;;
37445;SDS011;23307;51.136;14.942;2023-05-07T09:21:15;7.63;;;6.93;;
37445;SDS011;23307;51.136;14.942;2023-05-07T09:23:42;7.60;;;6.90;;
37445;SDS011;23307;51.136;14.942;2023-05-07T09:26:08;8.10;;;7.30;;
37445;SDS011;23307;51.136;14.942;2023-05-07T09:28:43;7.65;;;6.95;;
37445;SDS011;23307;51.136;14.942;2023-05-07T09:31:10;8.20;;;6.90;;
37445;SDS011;23307;51.136;14.942;2023-05-07T09:33:36;7.20;;;6.50;;
37445;SDS011;23307;51.136;14.942;2023-05-07T09:36:02;6.70;;;6.10;;
37445;SDS011;23307;51.136;14.942;2023-05-07T09:38:32;6.10;;;5.50;;
37445;SDS011;23307;51.136;14.942;2023-05-07T09:41:05;6.45;;;5.85;;
37445;SDS011;23307;51.136;14.942;2023-05-07T09:43:33;7.53;;;5.78;;
37445;SDS011;23307;51.136;14.942;2023-05-07T09:46:06;6.60;;;6.00;;
37445;SDS011;23307;51.136;14.942;2023-05-07T09:48:38;6.40;;;5.80;;
37445;SDS011;23307;51.136;14.942;2023-05-07T09:51:10;6.53;;;5.95;;
37445;SDS011;23307;51.136;14.942;2023-05-07T09:53:39;6.07;;;5.38;;
37445;SDS011;23307;51.136;14.942;2023-05-07T09:56:07;6.10;;;5.50;;
37445;SDS011;23307;51.136;14.942;2023-05-07T09:58:33;6.90;;;6.30;;
37445;SDS011;23307;51.136;14.942;2023-05-07T10:01:02;7.45;;;6.75;;
37445;SDS011;23307;51.136;14.942;2023-05-07T10:03:29;7.35;;;6.75;;
37445;SDS011;23307;51.136;14.942;2023-05-07T10:05:57;7.38;;;6.60;;
37445;SDS011;23307;51.136;14.942;2023-05-07T10:08:24;6.50;;;5.88;;
37445;SDS011;23307;51.136;14.942;2023-05-07T10:10:50;6.57;;;5.97;;
37445;SDS011;23307;51.136;14.942;2023-05-07T10:13:16;6.57;;;5.97;;
37445;SDS011;23307;51.136;14.942;2023-05-07T10:15:44;6.88;;;6.20;;
37445;SDS011;23307;51.136;14.942;2023-05-07T10:18:09;7.32;;;6.63;;
37445;SDS011;23307;51.136;14.942;2023-05-07T10:20:37;8.65;;;7.85;;
37445;SDS011;23307;51.136;14.942;2023-05-07T10:23:04;9.20;;;8.30;;
37445;SDS011;23307;51.136;14.942;2023-05-07T10:25:30;8.52;;;7.72;;
37445;SDS011;23307;51.136;14.942;2023-05-07T10:27:59;6.68;;;6.07;;
37445;SDS011;23307;51.136;14.942;2023-05-07T10:33:26;6.65;;;6.00;;
37445;SDS011;23307;51.136;14.942;2023-05-07T10:35:55;6.43;;;5.82;;
37445;SDS011;23307;51.136;14.942;2023-05-07T10:38:24;6.00;;;5.32;;
37445;SDS011;23307;51.136;14.942;2023-05-07T10:40:50;5.95;;;5.45;;
37445;SDS011;23307;51.136;14.942;2023-05-07T10:43:16;6.43;;;5.72;;
37445;SDS011;23307;51.136;14.942;2023-05-07T10:45:41;6.28;;;5.70;;
37445;SDS011;23307;51.136;14.942;2023-05-07T10:48:13;6.15;;;5.63;;
37445;SDS011;23307;51.136;14.942;2023-05-07T10:50:40;5.53;;;5.07;;
37445;SDS011;23307;51.136;14.942;2023-05-07T10:55:41;6.20;;;5.60;;
37445;SDS011;23307;51.136;14.942;2023-05-07T10:58:26;5.63;;;5.13;;
37445;SDS011;23307;51.136;14.942;2023-05-07T11:00:56;6.38;;;5.78;;
37445;SDS011;23307;51.136;14.942;2023-05-07T11:03:23;5.18;;;4.78;;
37445;SDS011;23307;51.136;14.942;2023-05-07T11:06:08;6.05;;;5.55;;
37445;SDS011;23307;51.136;14.942;2023-05-07T11:11:17;5.15;;;4.75;;
37445;SDS011;23307;51.136;14.942;2023-05-07T11:13:46;5.93;;;5.32;;
37445;SDS011;23307;51.136;14.942;2023-05-07T11:16:16;5.40;;;4.90;;
37445;SDS011;23307;51.136;14.942;2023-05-07T11:18:49;5.43;;;4.93;;
37445;SDS011;23307;51.136;14.942;2023-05-07T11:21:31;4.65;;;4.25;;
37445;SDS011;23307;51.136;14.942;2023-05-07T11:24:01;5.35;;;4.30;;
37445;SDS011;23307;51.136;14.942;2023-05-07T11:26:29;4.97;;;4.45;;
37445;SDS011;23307;51.136;14.942;2023-05-07T11:28:56;5.07;;;4.13;;
37445;SDS011;23307;51.136;14.942;2023-05-07T11:31:24;5.70;;;4.70;;
37445;SDS011;23307;51.136;14.942;2023-05-07T11:33:52;6.32;;;3.90;;
37445;SDS011;23307;51.136;14.942;2023-05-07T11:36:18;3.20;;;2.90;;
37445;SDS011;23307;51.136;14.942;2023-05-07T11:38:45;3.67;;;3.33;;
37445;SDS011;23307;51.136;14.942;2023-05-07T11:41:11;3.92;;;3.20;;
37445;SDS011;23307;51.136;14.942;2023-05-07T11:43:36;3.10;;;2.80;;
37445;SDS011;23307;51.136;14.942;2023-05-07T11:46:08;3.10;;;2.75;;
37445;SDS011;23307;51.136;14.942;2023-05-07T11:48:34;3.65;;;3.35;;
37445;SDS011;23307;51.136;14.942;2023-05-07T11:51:00;3.92;;;3.53;;
37445;SDS011;23307;51.136;14.942;2023-05-07T11:53:28;4.13;;;3.72;;
37445;SDS011;23307;51.136;14.942;2023-05-07T11:56:05;4.75;;;3.60;;
37445;SDS011;23307;51.136;14.942;2023-05-07T11:58:32;3.90;;;3.60;;
37445;SDS011;23307;51.136;14.942;2023-05-07T12:00:57;3.10;;;2.80;;
37445;SDS011;23307;51.136;14.942;2023-05-07T12:03:23;3.85;;;3.40;;
37445;SDS011;23307;51.136;14.942;2023-05-07T12:05:48;3.42;;;2.92;;
37445;SDS011;23307;51.136;14.942;2023-05-07T12:08:14;3.88;;;3.15;;
37445;SDS011;23307;51.136;14.942;2023-05-07T12:10:44;4.80;;;3.03;;
37445;SDS011;23307;51.136;14.942;2023-05-07T12:13:20;3.30;;;3.00;;
37445;SDS011;23307;51.136;14.942;2023-05-07T12:15:46;3.40;;;3.10;;
37445;SDS011;23307;51.136;14.942;2023-05-07T12:18:19;4.03;;;3.67;;
37445;SDS011;23307;51.136;14.942;2023-05-07T12:20:46;5.57;;;5.07;;
37445;SDS011;23307;51.136;14.942;2023-05-07T12:23:12;5.65;;;5.05;;
37445;SDS011;23307;51.136;14.942;2023-05-07T12:25:39;7.75;;;5.50;;
37445;SDS011;23307;51.136;14.942;2023-05-07T12:28:08;6.80;;;6.10;;
37445;SDS011;23307;51.136;14.942;2023-05-07T12:30:38;6.05;;;5.55;;
37445;SDS011;23307;51.136;14.942;2023-05-07T12:33:04;5.88;;;5.38;;
37445;SDS011;23307;51.136;14.942;2023-05-07T12:35:30;6.45;;;5.47;;
37445;SDS011;23307;51.136;14.942;2023-05-07T12:37:57;5.57;;;5.07;;
37445;SDS011;23307;51.136;14.942;2023-05-07T12:40:24;6.30;;;5.70;;
37445;SDS011;23307;51.136;14.942;2023-05-07T12:43:07;6.55;;;5.95;;
37445;SDS011;23307;51.136;14.942;2023-05-07T12:45:39;6.00;;;5.50;;
37445;SDS011;23307;51.136;14.942;2023-05-07T12:48:06;5.53;;;5.03;;
37445;SDS011;23307;51.136;14.942;2023-05-07T12:50:34;7.13;;;5.82;;
37445;SDS011;23307;51.136;14.942;2023-05-07T12:53:00;6.82;;;5.95;;
37445;SDS011;23307;51.136;14.942;2023-05-07T12:55:30;7.53;;;6.70;;
37445;SDS011;23307;51.136;14.942;2023-05-07T12:57:57;7.20;;;6.50;;
37445;SDS011;23307;51.136;14.942;2023-05-07T13:00:35;7.65;;;6.85;;
37445;SDS011;23307;51.136;14.942;2023-05-07T13:03:01;7.50;;;6.80;;
37445;SDS011;23307;51.136;14.942;2023-05-07T13:05:27;7.45;;;6.68;;
37445;SDS011;23307;51.136;14.942;2023-05-07T13:07:53;6.90;;;6.20;;
37445;SDS011;23307;51.136;14.942;2023-05-07T13:10:19;5.65;;;5.15;;
37445;SDS011;23307;51.136;14.942;2023-05-07T13:12:46;6.90;;;6.18;;
37445;SDS011;23307;51.136;14.942;2023-05-07T13:15:11;6.25;;;5.68;;
37445;SDS011;23307;51.136;14.942;2023-05-07T13:17:37;6.32;;;5.40;;
37445;SDS011;23307;51.136;14.942;2023-05-07T13:20:02;6.10;;;5.50;;
37445;SDS011;23307;51.136;14.942;2023-05-07T13:22:28;7.15;;;6.13;;
37445;SDS011;23307;51.136;14.942;2023-05-07T13:24:54;7.10;;;6.05;;
37445;SDS011;23307;51.136;14.942;2023-05-07T13:27:19;7.78;;;6.97;;
37445;SDS011;23307;51.136;14.942;2023-05-07T13:29:45;7.97;;;7.25;;
37445;SDS011;23307;51.136;14.942;2023-05-07T13:32:10;7.03;;;6.32;;
37445;SDS011;23307;51.136;14.942;2023-05-07T13:34:36;7.78;;;7.05;;
37445;SDS011;23307;51.136;14.942;2023-05-07T13:37:02;7.05;;;6.45;;
37445;SDS011;23307;51.136;14.942;2023-05-07T13:39:27;7.38;;;6.50;;
37445;SDS011;23307;51.136;14.942;2023-05-07T13:41:53;7.72;;;7.03;;
37445;SDS011;23307;51.136;14.942;2023-05-07T13:44:18;6.85;;;6.20;;
37445;SDS011;23307;51.136;14.942;2023-05-07T13:46:43;6.18;;;5.57;;
37445;SDS011;23307;51.136;14.942;2023-05-07T13:49:09;6.72;;;6.03;;
37445;SDS011;23307;51.136;14.942;2023-05-07T13:51:36;8.90;;;6.63;;
37445;SDS011;23307;51.136;14.942;2023-05-07T13:54:01;7.20;;;6.50;;
37445;SDS011;23307;51.136;14.942;2023-05-07T13:56:27;7.57;;;6.88;;
37445;SDS011;23307;51.136;14.942;2023-05-07T13:58:53;7.90;;;7.20;;
37445;SDS011;23307;51.136;14.942;2023-05-07T14:01:18;7.72;;;7.00;;
37445;SDS011;23307;51.136;14.942;2023-05-07T14:03:44;9.35;;;7.65;;
37445;SDS011;23307;51.136;14.942;2023-05-07T14:06:09;8.35;;;7.55;;
37445;SDS011;23307;51.136;14.942;2023-05-07T14:08:35;9.43;;;7.95;;
37445;SDS011;23307;51.136;14.942;2023-05-07T14:11:00;8.75;;;7.85;;
37445;SDS011;23307;51.136;14.942;2023-05-07T14:13:26;8.60;;;7.72;;
37445;SDS011;23307;51.136;14.942;2023-05-07T14:15:52;8.70;;;7.80;;
37445;SDS011;23307;51.136;14.942;2023-05-07T14:18:17;8.02;;;7.10;;
37445;SDS011;23307;51.136;14.942;2023-05-07T14:20:43;7.95;;;7.25;;
37445;SDS011;23307;51.136;14.942;2023-05-07T14:23:10;7.68;;;6.97;;
37445;SDS011;23307;51.136;14.942;2023-05-07T14:25:36;7.22;;;6.53;;
37445;SDS011;23307;51.136;14.942;2023-05-07T14:28:01;6.80;;;5.95;;